Aiyion, Greece
Current Conditions -  °F | °C
As of 8:50 PM on Sunday 21 Dec 2014 (Local Time) from LGRX Reporting Station
Few Clouds Few Clouds  
Wind Chill: 50°   Ceiling: Unl
Heat Index: 50°   Visibility: 6mi
Dew Point: 48°   Wind: 0mph
Humidity: 94%   Direction: NA
Pressure: 30.21"   Gusts: NA
Location:  38.25°N, 22.08°E
Report Text: LGRX 211850Z 00000KT 9999 FEW018 10/09 Q1023
Loading
Personal Weather Stations






























Interactive Weather Map New forecast layout! Learn more

10-Day Weather Forecast

Advertisements
Track Severe Weather on mobile